createdAt,value
2023-05-10T00:02:25.054Z,0.76
2023-05-10T00:04:57.120Z,0.86
2023-05-10T00:07:28.830Z,0.91
2023-05-10T00:10:00.522Z,0.80
2023-05-10T00:12:32.190Z,0.69
2023-05-10T00:15:05.104Z,0.84
2023-05-10T00:17:36.734Z,0.83
2023-05-10T00:20:08.763Z,0.95
2023-05-10T00:22:40.373Z,0.88
2023-05-10T00:25:12.037Z,0.85
2023-05-10T00:27:43.758Z,0.94
2023-05-10T00:30:16.801Z,0.99
2023-05-10T00:32:48.630Z,0.79
2023-05-10T00:35:20.342Z,0.87
2023-05-10T00:37:53.191Z,0.86
2023-05-10T00:40:26.046Z,0.87
2023-05-10T00:43:02.023Z,0.88
2023-05-10T00:45:36.437Z,0.78
2023-05-10T00:48:08.256Z,0.69
2023-05-10T00:50:40.385Z,0.75
2023-05-10T00:53:12.099Z,0.78
2023-05-10T00:55:44.249Z,0.86
2023-05-10T00:58:16.117Z,0.76
2023-05-10T01:00:48.466Z,0.83
2023-05-10T01:03:20.753Z,0.71
2023-05-10T01:05:53.780Z,0.76
2023-05-10T01:08:27.045Z,0.84
2023-05-10T01:10:59.677Z,0.73
2023-05-10T01:13:39.771Z,0.81
2023-05-10T01:16:12.030Z,0.67
2023-05-10T01:18:45.770Z,0.62
2023-05-10T01:21:24.300Z,0.71
2023-05-10T01:24:11.435Z,0.68
2023-05-10T01:27:01.120Z,0.65
2023-05-10T01:29:48.125Z,0.71
2023-05-10T01:32:27.515Z,0.75
2023-05-10T01:35:18.109Z,0.89
2023-05-10T01:38:17.016Z,0.70
2023-05-10T01:41:18.227Z,0.65
2023-05-10T01:44:11.779Z,0.68
2023-05-10T01:46:54.149Z,0.60
2023-05-10T01:49:37.813Z,0.63
2023-05-10T01:52:14.959Z,0.71
2023-05-10T01:54:57.810Z,0.75
2023-05-10T01:57:35.183Z,0.59
2023-05-10T02:00:11.637Z,0.67
2023-05-10T02:02:49.966Z,0.64
2023-05-10T02:05:25.173Z,0.73
2023-05-10T02:08:00.619Z,0.61
2023-05-10T02:10:35.267Z,0.55
2023-05-10T02:13:10.972Z,0.52
2023-05-10T02:15:47.750Z,0.60
2023-05-10T02:18:20.459Z,0.54
2023-05-10T02:20:56.341Z,0.53
2023-05-10T02:23:30.271Z,0.53
2023-05-10T02:26:04.877Z,0.48
2023-05-10T02:28:38.399Z,0.61
2023-05-10T02:31:12.070Z,0.77
2023-05-10T02:33:46.960Z,0.66
2023-05-10T02:36:22.089Z,0.75
2023-05-10T02:38:54.317Z,0.74
2023-05-10T02:41:27.606Z,0.68
2023-05-10T02:44:03.511Z,0.66
2023-05-10T02:46:35.227Z,0.77
2023-05-10T02:49:07.478Z,0.78
2023-05-10T02:51:45.176Z,0.58
2023-05-10T02:54:21.017Z,0.82
2023-05-10T02:56:58.553Z,0.71
2023-05-10T02:59:30.256Z,0.72
2023-05-10T03:02:02.842Z,0.66
2023-05-10T03:04:34.780Z,0.85
2023-05-10T03:07:07.144Z,0.71
2023-05-10T03:09:38.820Z,0.73
2023-05-10T03:12:31.244Z,0.71
2023-05-10T03:15:33.648Z,0.85
2023-05-10T03:18:15.041Z,0.73
2023-05-10T03:20:56.278Z,0.87
2023-05-10T03:23:36.349Z,0.76
2023-05-10T03:26:09.689Z,0.77
2023-05-10T03:28:43.076Z,0.74
2023-05-10T03:31:15.698Z,0.69
2023-05-10T03:33:52.866Z,0.75
2023-05-10T03:36:29.884Z,0.73
2023-05-10T03:39:01.723Z,0.70
2023-05-10T03:41:33.402Z,0.84
2023-05-10T03:44:05.538Z,0.88
2023-05-10T03:46:37.375Z,0.71
2023-05-10T03:49:09.736Z,0.77
2023-05-10T03:51:42.223Z,0.79
2023-05-10T03:54:14.412Z,0.67
2023-05-10T03:56:47.382Z,0.77
2023-05-10T03:59:20.112Z,0.84
2023-05-10T04:01:52.526Z,0.92
2023-05-10T04:04:25.062Z,0.77
2023-05-10T04:06:56.923Z,0.76
2023-05-10T04:09:29.549Z,0.78
2023-05-10T04:12:03.063Z,0.76
2023-05-10T04:14:36.684Z,0.76
2023-05-10T04:17:09.017Z,0.72
2023-05-10T04:19:40.765Z,0.93
2023-05-10T04:22:13.254Z,0.70
2023-05-10T04:24:45.642Z,0.74
2023-05-10T04:27:17.580Z,0.65
2023-05-10T04:29:50.818Z,0.86
2023-05-10T04:32:22.651Z,0.73
2023-05-10T04:34:54.550Z,0.60
2023-05-10T04:37:26.416Z,0.80
2023-05-10T04:39:58.592Z,0.66
2023-05-10T04:42:30.285Z,0.69
2023-05-10T04:45:01.955Z,0.68
2023-05-10T04:47:33.804Z,0.69
2023-05-10T04:50:06.070Z,0.68
2023-05-10T04:52:37.691Z,0.76
2023-05-10T04:55:09.500Z,0.71
2023-05-10T04:57:41.331Z,0.56
2023-05-10T05:00:13.589Z,0.59
2023-05-10T05:02:45.838Z,0.59
2023-05-10T05:05:17.454Z,0.56
2023-05-10T05:07:49.050Z,0.66
2023-05-10T05:10:20.718Z,0.72
2023-05-10T05:12:52.450Z,0.66
2023-05-10T05:15:24.308Z,0.63
2023-05-10T05:17:55.985Z,0.51
2023-05-10T05:20:27.718Z,0.47
2023-05-10T05:22:59.387Z,0.71
2023-05-10T05:25:31.659Z,0.61
2023-05-10T05:28:03.492Z,0.62
2023-05-10T05:30:35.758Z,0.54
2023-05-10T05:33:07.560Z,0.65
2023-05-10T05:35:39.324Z,0.62
2023-05-10T05:38:11.189Z,0.62
2023-05-10T05:40:43.260Z,0.63
2023-05-10T05:43:15.106Z,0.64
2023-05-10T05:45:46.840Z,0.64
2023-05-10T05:48:18.630Z,0.59
2023-05-10T05:50:50.364Z,0.58
2023-05-10T05:53:22.609Z,0.69
2023-05-10T05:55:58.121Z,0.67
2023-05-10T05:58:30.554Z,0.65
2023-05-10T06:01:02.718Z,0.62
2023-05-10T06:03:34.586Z,0.63
2023-05-10T06:06:06.769Z,0.78
2023-05-10T06:08:38.826Z,0.82
2023-05-10T06:11:10.731Z,0.83
2023-05-10T06:13:42.974Z,0.78
2023-05-10T06:16:15.082Z,0.94
2023-05-10T06:18:46.912Z,0.86
2023-05-10T06:21:19.019Z,0.70
2023-05-10T06:23:51.213Z,0.90
2023-05-10T06:26:23.372Z,0.85
2023-05-10T06:28:55.439Z,0.90
2023-05-10T06:31:27.499Z,0.91
2023-05-10T06:33:59.888Z,0.76
2023-05-10T06:36:36.946Z,0.92
2023-05-10T06:39:09.968Z,0.83
2023-05-10T06:41:41.967Z,0.91
2023-05-10T06:44:14.186Z,0.71
2023-05-10T06:46:49.436Z,0.68
2023-05-10T06:49:22.276Z,0.66
2023-05-10T06:51:54.593Z,0.62
2023-05-10T06:54:26.730Z,0.88
2023-05-10T06:57:01.913Z,0.78
2023-05-10T06:59:37.058Z,0.67
2023-05-10T07:02:08.960Z,0.96
2023-05-10T07:04:41.426Z,0.77
2023-05-10T07:07:13.429Z,0.72
2023-05-10T07:09:45.311Z,0.91
2023-05-10T07:12:17.041Z,0.83
2023-05-10T07:14:48.809Z,0.94
2023-05-10T07:17:20.768Z,0.94
2023-05-10T07:19:52.665Z,0.96
2023-05-10T07:22:24.371Z,1.04
2023-05-10T07:24:55.949Z,1.04
2023-05-10T07:27:27.717Z,0.90
2023-05-10T07:29:59.506Z,0.84
2023-05-10T07:32:31.295Z,0.91
2023-05-10T07:35:02.958Z,0.82
2023-05-10T07:37:34.619Z,0.86
2023-05-10T07:40:07.071Z,0.97
2023-05-10T07:42:38.806Z,1.09
2023-05-10T07:45:10.675Z,0.93
2023-05-10T07:47:42.373Z,0.97
2023-05-10T07:50:14.988Z,0.98
2023-05-10T07:52:46.769Z,1.03
2023-05-10T07:55:20.141Z,0.94
2023-05-10T07:57:51.950Z,1.01
2023-05-10T08:00:23.732Z,1.01
2023-05-10T08:02:55.792Z,0.90
2023-05-10T08:05:27.799Z,0.88
2023-05-10T08:07:59.606Z,0.47
2023-05-10T08:10:31.339Z,0.49
2023-05-10T08:13:03.311Z,0.55
2023-05-10T08:15:35.069Z,0.41
2023-05-10T08:18:07.052Z,0.35
2023-05-10T08:20:38.710Z,0.35
2023-05-10T08:23:13.071Z,0.31
2023-05-10T08:25:45.029Z,0.48
2023-05-10T08:28:17.237Z,0.47
2023-05-10T08:30:56.310Z,0.43
2023-05-10T08:33:28.695Z,0.59
2023-05-10T08:36:00.807Z,0.60
2023-05-10T08:38:33.633Z,0.50
2023-05-10T08:41:06.634Z,0.51
2023-05-10T08:43:39.799Z,0.56
2023-05-10T08:46:17.054Z,0.57
2023-05-10T08:48:51.762Z,0.46
2023-05-10T08:51:25.920Z,0.48
2023-05-10T08:53:58.299Z,0.71
2023-05-10T08:56:30.318Z,0.77
2023-05-10T08:59:02.585Z,0.95
2023-05-10T09:01:37.689Z,1.03
2023-05-10T09:04:13.430Z,0.97
2023-05-10T09:06:47.298Z,1.04
2023-05-10T09:09:21.227Z,1.11
2023-05-10T09:11:55.317Z,1.07
2023-05-10T09:14:28.388Z,1.21
2023-05-10T09:17:02.273Z,1.00
2023-05-10T09:19:35.115Z,1.08
2023-05-10T09:22:07.300Z,1.16
2023-05-10T09:24:38.871Z,1.20
2023-05-10T09:27:10.490Z,1.13
2023-05-10T09:29:44.936Z,1.01
2023-05-10T09:32:16.576Z,1.12
2023-05-10T09:34:50.694Z,1.06
2023-05-10T09:37:30.705Z,1.01
2023-05-10T09:40:05.849Z,1.03
2023-05-10T09:42:37.502Z,0.98
2023-05-10T09:45:09.656Z,1.13
2023-05-10T09:47:41.832Z,1.16
2023-05-10T09:50:13.883Z,1.30
2023-05-10T09:52:54.184Z,1.16
2023-05-10T09:55:43.871Z,1.16
2023-05-10T09:58:15.983Z,1.31
2023-05-10T10:00:48.408Z,1.25
2023-05-10T10:03:23.287Z,1.03
2023-05-10T10:05:55.651Z,1.08
2023-05-10T10:08:27.986Z,1.25
2023-05-10T10:11:00.459Z,1.05
2023-05-10T10:13:32.435Z,1.13
2023-05-10T10:16:05.110Z,1.18
2023-05-10T10:18:37.860Z,1.14
2023-05-10T10:21:10.099Z,1.12
2023-05-10T10:23:41.942Z,1.10
2023-05-10T10:26:16.238Z,1.18
2023-05-10T10:29:15.462Z,1.37
2023-05-10T10:32:11.833Z,1.23
2023-05-10T10:34:43.689Z,1.35
2023-05-10T10:37:15.986Z,1.39
2023-05-10T10:39:50.071Z,1.44
2023-05-10T10:42:47.882Z,1.22
2023-05-10T10:45:21.342Z,1.28
2023-05-10T10:48:25.791Z,1.17
2023-05-10T10:50:58.508Z,1.16
2023-05-10T10:53:30.635Z,1.21
2023-05-10T10:56:08.905Z,1.49
2023-05-10T10:58:41.032Z,2.92
2023-05-10T11:01:16.587Z,1.46
2023-05-10T11:04:04.357Z,0.93
2023-05-10T11:06:37.261Z,0.91
2023-05-10T11:09:13.059Z,0.95
2023-05-10T11:11:53.691Z,0.76
2023-05-10T11:14:26.606Z,0.75
2023-05-10T11:16:59.438Z,0.55
2023-05-10T11:19:31.141Z,0.73
2023-05-10T11:22:06.022Z,0.71
2023-05-10T11:24:38.088Z,0.74
2023-05-10T11:27:12.129Z,0.70
2023-05-10T11:29:44.338Z,0.81
2023-05-10T11:32:16.518Z,0.61
2023-05-10T11:34:50.097Z,0.60
2023-05-10T11:37:22.103Z,0.80
2023-05-10T11:39:55.887Z,0.69
2023-05-10T11:42:29.489Z,0.81
2023-05-10T11:45:02.144Z,0.75
2023-05-10T11:47:33.878Z,0.49
2023-05-10T11:50:06.541Z,0.42
2023-05-10T11:52:38.222Z,0.49
2023-05-10T11:55:10.082Z,0.48
2023-05-10T11:57:41.732Z,1.11
2023-05-10T12:00:14.905Z,0.60
2023-05-10T12:02:49.125Z,0.53
2023-05-10T12:05:20.906Z,0.52
2023-05-10T12:07:52.583Z,0.80
2023-05-10T12:10:27.751Z,0.53
2023-05-10T12:12:59.379Z,0.58
2023-05-10T12:15:31.209Z,0.58
2023-05-10T12:18:02.818Z,0.53
2023-05-10T12:20:34.545Z,0.67
2023-05-10T12:23:06.753Z,0.63
2023-05-10T12:25:39.599Z,0.61
2023-05-10T12:28:11.505Z,0.66
2023-05-10T12:30:43.214Z,0.71
2023-05-10T12:33:15.443Z,0.44
2023-05-10T12:35:49.971Z,0.48
2023-05-10T12:38:33.713Z,0.48
2023-05-10T12:41:11.567Z,0.57
2023-05-10T12:43:43.329Z,0.58
2023-05-10T12:46:18.173Z,0.68
2023-05-10T12:48:57.540Z,0.66
2023-05-10T12:51:35.367Z,0.57
2023-05-10T12:54:07.348Z,0.62
2023-05-10T12:56:39.123Z,0.53
2023-05-10T12:59:11.207Z,0.41
2023-05-10T13:01:42.984Z,0.37
2023-05-10T13:04:15.255Z,0.46
2023-05-10T13:06:48.742Z,0.55
2023-05-10T13:09:20.846Z,0.56
2023-05-10T13:11:52.747Z,0.47
2023-05-10T13:14:25.543Z,0.40
2023-05-10T13:16:57.826Z,0.29
2023-05-10T13:19:29.489Z,0.38
2023-05-10T13:22:01.422Z,0.38
2023-05-10T13:24:33.039Z,0.28
2023-05-10T13:27:04.912Z,0.28
2023-05-10T13:29:36.601Z,0.29
2023-05-10T13:32:08.628Z,0.25
2023-05-10T13:34:41.049Z,0.25
2023-05-10T13:37:12.853Z,0.28
2023-05-10T13:39:45.169Z,0.23
2023-05-10T13:42:19.467Z,0.25
2023-05-10T13:44:52.588Z,0.23
2023-05-10T13:47:25.001Z,0.30
2023-05-10T13:49:57.177Z,2.17
2023-05-10T13:52:29.575Z,1.42
2023-05-10T13:55:02.234Z,0.74
2023-05-10T13:57:33.913Z,0.70
2023-05-10T14:00:06.273Z,0.34
2023-05-10T14:02:39.548Z,0.27
2023-05-10T14:05:11.201Z,0.17
2023-05-10T14:07:42.781Z,0.24
2023-05-10T14:10:14.261Z,0.22
2023-05-10T14:12:45.899Z,0.30
2023-05-10T14:15:17.598Z,0.31
2023-05-10T14:17:49.646Z,0.34
2023-05-10T14:20:21.229Z,0.40
2023-05-10T14:22:52.818Z,0.29
2023-05-10T14:25:25.199Z,0.42
2023-05-10T14:27:56.973Z,0.50
2023-05-10T14:30:29.306Z,0.31
2023-05-10T14:33:02.900Z,0.37
2023-05-10T14:35:35.093Z,0.47
2023-05-10T14:38:06.903Z,0.49
2023-05-10T14:40:38.781Z,0.40
2023-05-10T14:43:10.731Z,0.35
2023-05-10T14:45:42.732Z,0.42
2023-05-10T14:48:14.430Z,0.40
2023-05-10T14:50:47.379Z,0.46
2023-05-10T14:53:19.475Z,0.34
2023-05-10T14:55:51.449Z,0.36
2023-05-10T14:58:23.139Z,0.42
2023-05-10T15:00:55.156Z,0.38
2023-05-10T15:03:30.009Z,0.35
2023-05-10T15:06:02.387Z,0.42
2023-05-10T15:08:33.958Z,0.35
2023-05-10T15:11:05.721Z,0.43
2023-05-10T15:13:37.625Z,0.46
2023-05-10T15:16:10.108Z,0.36
2023-05-10T15:18:42.084Z,0.33
2023-05-10T15:21:14.330Z,0.26
2023-05-10T15:23:46.308Z,0.26
2023-05-10T15:26:18.266Z,0.21
2023-05-10T15:28:50.015Z,0.23
2023-05-10T15:31:22.104Z,0.41
2023-05-10T15:33:58.791Z,0.23
2023-05-10T15:36:32.806Z,0.23
2023-05-10T15:39:04.827Z,0.31
2023-05-10T15:41:36.869Z,0.25
2023-05-10T15:44:09.891Z,0.30
2023-05-10T15:46:42.146Z,0.29
2023-05-10T15:49:14.281Z,0.25
2023-05-10T15:51:46.291Z,0.22
2023-05-10T15:54:19.028Z,0.32
2023-05-10T15:56:51.111Z,0.32
2023-05-10T15:59:23.155Z,0.38
2023-05-10T16:01:55.389Z,0.67
2023-05-10T16:04:27.619Z,0.33
2023-05-10T16:07:00.172Z,0.37
2023-05-10T16:09:31.993Z,0.34
2023-05-10T16:12:04.253Z,0.28
2023-05-10T16:14:36.178Z,0.32
2023-05-10T16:17:08.022Z,0.43
2023-05-10T16:19:39.727Z,0.46
2023-05-10T16:22:11.508Z,0.39
2023-05-10T16:24:43.841Z,0.39
2023-05-10T16:27:15.473Z,0.33
2023-05-10T16:29:47.926Z,0.44
2023-05-10T16:32:19.723Z,0.44
2023-05-10T16:34:51.394Z,0.37
2023-05-10T16:37:23.072Z,0.37
2023-05-10T16:39:54.687Z,0.44
2023-05-10T16:42:27.536Z,0.31
2023-05-10T16:44:59.282Z,0.28
2023-05-10T16:47:30.957Z,0.27
2023-05-10T16:50:05.065Z,0.30
2023-05-10T16:52:36.986Z,0.38
2023-05-10T16:55:08.917Z,0.36
2023-05-10T16:57:40.698Z,0.27
2023-05-10T17:00:13.694Z,0.40
2023-05-10T17:02:46.360Z,0.31
2023-05-10T17:05:18.690Z,0.40
2023-05-10T17:07:50.516Z,0.40
2023-05-10T17:10:22.437Z,0.42
2023-05-10T17:12:54.333Z,0.43
2023-05-10T17:15:26.327Z,0.53
2023-05-10T17:17:58.424Z,0.38
2023-05-10T17:20:30.229Z,0.44
2023-05-10T17:23:02.279Z,0.69
2023-05-10T17:25:35.404Z,0.56
2023-05-10T17:28:07.536Z,0.63
2023-05-10T17:30:39.349Z,0.47
2023-05-10T17:33:11.459Z,0.69
2023-05-10T17:35:45.177Z,0.51
2023-05-10T17:38:17.972Z,0.58
2023-05-10T17:40:51.388Z,0.82
2023-05-10T17:43:23.453Z,0.79
2023-05-10T17:45:55.706Z,0.73
2023-05-10T17:48:27.647Z,0.88
2023-05-10T17:51:00.114Z,0.85
2023-05-10T17:53:33.751Z,0.57
2023-05-10T17:56:06.507Z,0.71
2023-05-10T17:58:39.790Z,0.85
2023-05-10T18:01:12.544Z,0.55
2023-05-10T18:03:44.734Z,0.57
2023-05-10T18:06:16.825Z,0.63
2023-05-10T18:08:50.117Z,0.60
2023-05-10T18:11:22.112Z,0.59
2023-05-10T18:13:54.118Z,0.57
2023-05-10T18:16:27.036Z,0.63
2023-05-10T18:18:59.180Z,0.50
2023-05-10T18:21:31.295Z,0.67
2023-05-10T18:24:05.453Z,0.77
2023-05-10T18:26:37.431Z,0.62
2023-05-10T18:29:09.705Z,0.77
2023-05-10T18:31:41.673Z,0.85
2023-05-10T18:34:13.464Z,0.56
2023-05-10T18:36:45.266Z,0.63
2023-05-10T18:39:16.925Z,0.58
2023-05-10T18:41:49.841Z,0.61
2023-05-10T18:44:21.583Z,0.53
2023-05-10T18:46:53.935Z,0.61
2023-05-10T18:49:26.376Z,0.61
2023-05-10T18:51:58.108Z,0.54
2023-05-10T18:54:29.877Z,0.63
2023-05-10T18:57:01.772Z,0.53
2023-05-10T18:59:33.919Z,0.53
2023-05-10T19:02:05.761Z,0.56
2023-05-10T19:04:37.536Z,0.61
2023-05-10T19:07:09.285Z,0.72
2023-05-10T19:09:41.130Z,0.68
2023-05-10T19:12:13.417Z,0.58
2023-05-10T19:14:45.344Z,0.71
2023-05-10T19:17:18.433Z,0.55
2023-05-10T19:19:51.407Z,0.53
2023-05-10T19:22:35.332Z,0.58
2023-05-10T19:25:15.744Z,0.62
2023-05-10T19:27:47.986Z,0.57
2023-05-10T19:30:20.180Z,0.45
2023-05-10T19:32:53.509Z,0.54
2023-05-10T19:35:26.479Z,0.60
2023-05-10T19:37:59.463Z,0.58
2023-05-10T19:40:35.021Z,0.61
2023-05-10T19:43:07.356Z,0.71
2023-05-10T19:45:39.882Z,0.58
2023-05-10T19:48:13.507Z,0.71
2023-05-10T19:50:46.154Z,0.55
2023-05-10T19:53:17.985Z,0.58
2023-05-10T19:55:50.131Z,0.73
2023-05-10T19:58:22.889Z,0.81
2023-05-10T20:00:55.143Z,0.82
2023-05-10T20:03:27.573Z,0.78
2023-05-10T20:06:00.907Z,0.87
2023-05-10T20:08:32.769Z,0.97
2023-05-10T20:11:05.727Z,1.02
2023-05-10T20:13:38.260Z,0.84
2023-05-10T20:16:11.363Z,0.73
2023-05-10T20:18:43.663Z,0.90
2023-05-10T20:21:16.617Z,0.78
2023-05-10T20:23:48.780Z,0.52
2023-05-10T20:26:21.542Z,0.59
2023-05-10T20:28:53.484Z,0.58
2023-05-10T20:31:26.580Z,0.68
2023-05-10T20:33:58.934Z,0.68
2023-05-10T20:36:31.230Z,0.63
2023-05-10T20:39:03.401Z,0.59
2023-05-10T20:41:35.316Z,0.67
2023-05-10T20:44:07.579Z,0.67
2023-05-10T20:46:41.292Z,0.54
2023-05-10T20:49:13.481Z,0.56
2023-05-10T20:51:45.167Z,0.63
2023-05-10T20:54:16.916Z,0.68
2023-05-10T20:56:48.568Z,0.93
2023-05-10T20:59:20.167Z,1.24
2023-05-10T21:01:51.935Z,0.95
2023-05-10T21:04:24.577Z,0.93
2023-05-10T21:06:56.359Z,0.65
2023-05-10T21:09:29.127Z,0.82
2023-05-10T21:12:00.916Z,0.90
2023-05-10T21:14:32.807Z,0.78
2023-05-10T21:17:04.811Z,0.76
2023-05-10T21:19:36.512Z,0.85
2023-05-10T21:22:08.699Z,0.85
2023-05-10T21:24:40.357Z,0.82
2023-05-10T21:27:12.166Z,0.80
2023-05-10T21:29:43.880Z,0.80
2023-05-10T21:32:16.078Z,0.81
2023-05-10T21:34:47.815Z,0.69
2023-05-10T21:37:20.021Z,0.81
2023-05-10T21:39:53.219Z,0.82
2023-05-10T21:42:25.645Z,0.68
2023-05-10T21:44:57.486Z,0.88
2023-05-10T21:47:29.911Z,1.10
2023-05-10T21:50:02.842Z,0.73
2023-05-10T21:52:35.067Z,0.87
2023-05-10T21:55:07.560Z,0.86
2023-05-10T21:57:39.587Z,0.68
2023-05-10T22:00:13.602Z,0.64
2023-05-10T22:02:46.169Z,0.67
2023-05-10T22:05:18.772Z,0.70
2023-05-10T22:07:50.617Z,0.73
2023-05-10T22:10:22.536Z,0.81
2023-05-10T22:12:54.396Z,0.81
2023-05-10T22:15:26.803Z,0.71
2023-05-10T22:17:59.697Z,0.70
2023-05-10T22:20:32.574Z,0.77
2023-05-10T22:23:04.462Z,0.77
2023-05-10T22:25:36.453Z,0.86
2023-05-10T22:28:08.585Z,0.82
2023-05-10T22:30:42.470Z,0.87
2023-05-10T22:33:14.411Z,0.84
2023-05-10T22:35:46.238Z,0.88
2023-05-10T22:38:18.611Z,0.99
2023-05-10T22:40:50.750Z,0.88
2023-05-10T22:43:23.287Z,1.06
2023-05-10T22:45:55.466Z,0.87
2023-05-10T22:48:28.954Z,0.82
2023-05-10T22:51:01.603Z,0.92
2023-05-10T22:53:33.260Z,0.95
2023-05-10T22:56:06.231Z,0.94
2023-05-10T22:58:38.214Z,0.89
2023-05-10T23:01:12.538Z,0.91
2023-05-10T23:03:44.346Z,0.91
2023-05-10T23:06:16.334Z,0.92
2023-05-10T23:08:48.234Z,0.98
2023-05-10T23:11:20.006Z,0.87
2023-05-10T23:13:51.661Z,1.08
2023-05-10T23:16:23.260Z,0.98
2023-05-10T23:18:55.645Z,0.92
2023-05-10T23:21:27.956Z,0.85
2023-05-10T23:24:01.062Z,0.92
2023-05-10T23:26:32.686Z,0.97
2023-05-10T23:29:04.339Z,1.11
2023-05-10T23:31:36.026Z,0.86
2023-05-10T23:34:07.776Z,0.97
2023-05-10T23:36:39.510Z,0.94
2023-05-10T23:39:11.134Z,0.80
2023-05-10T23:41:42.819Z,0.96
2023-05-10T23:44:14.531Z,0.94
2023-05-10T23:46:46.196Z,0.93
2023-05-10T23:49:17.814Z,0.86
2023-05-10T23:51:49.502Z,1.03
2023-05-10T23:54:21.226Z,1.02
2023-05-10T23:56:53.141Z,0.91
2023-05-10T23:59:25.394Z,0.88
